createdAt,value
2019-01-03T00:00:11.810Z,90.17
2019-01-03T00:01:11.760Z,90.60
2019-01-03T00:02:12.389Z,90.28
2019-01-03T00:03:11.739Z,89.96
2019-01-03T00:04:11.731Z,89.53
2019-01-03T00:05:11.750Z,90.17
2019-01-03T00:06:11.747Z,90.39
2019-01-03T00:07:11.701Z,90.60
2019-01-03T00:08:11.687Z,90.28
2019-01-03T00:09:11.676Z,90.06
2019-01-03T00:10:11.711Z,89.96
2019-01-03T00:11:11.658Z,90.06
2019-01-03T00:12:11.667Z,90.17
2019-01-03T00:13:11.639Z,90.28
2019-01-03T00:14:11.630Z,90.11
2019-01-03T00:15:11.618Z,90.17
2019-01-03T00:16:11.626Z,90.21
2019-01-03T00:17:11.599Z,90.28
2019-01-03T00:18:11.627Z,90.42
2019-01-03T00:19:11.574Z,90.42
2019-01-03T00:20:11.566Z,90.00
2019-01-03T00:21:11.560Z,90.42
2019-01-03T00:22:11.547Z,90.32
2019-01-03T00:23:11.560Z,90.21
2019-01-03T00:24:11.697Z,90.32
2019-01-03T00:25:11.518Z,90.21
2019-01-03T00:26:11.506Z,90.21
2019-01-03T00:27:11.501Z,89.36
2019-01-03T00:28:21.831Z,89.61
2019-01-03T00:29:11.476Z,89.68
2019-01-03T00:30:11.484Z,90.25
2019-01-03T00:31:11.456Z,90.21
2019-01-03T00:32:11.454Z,90.04
2019-01-03T00:33:11.434Z,90.36
2019-01-03T00:34:11.423Z,89.29
2019-01-03T00:35:11.418Z,90.25
2019-01-03T00:36:11.446Z,90.36
2019-01-03T00:37:11.395Z,89.94
2019-01-03T00:38:11.383Z,90.32
2019-01-03T00:39:11.373Z,90.47
2019-01-03T00:40:11.369Z,90.47
2019-01-03T00:41:11.353Z,90.15
2019-01-03T00:42:11.381Z,90.36
2019-01-03T00:43:11.331Z,89.72
2019-01-03T00:44:11.322Z,89.51
2019-01-03T00:45:11.311Z,89.65
2019-01-03T00:46:11.308Z,90.40
2019-01-03T00:47:18.450Z,90.30
2019-01-03T00:48:11.281Z,90.47
2019-01-03T00:49:11.270Z,90.40
2019-01-03T00:50:11.261Z,90.61
2019-01-03T00:51:11.257Z,89.83
2019-01-03T00:52:11.239Z,90.61
2019-01-03T00:53:11.272Z,90.08
2019-01-03T00:54:11.222Z,90.19
2019-01-03T00:55:11.233Z,90.08
2019-01-03T00:56:11.201Z,90.30
2019-01-03T00:57:11.194Z,89.65
2019-01-03T00:58:11.179Z,89.65
2019-01-03T00:59:11.222Z,89.44
2019-01-03T01:00:11.161Z,89.80
2019-01-03T01:01:11.153Z,89.37
2019-01-03T01:02:11.139Z,89.76
2019-01-03T01:03:11.128Z,89.33
2019-01-03T01:04:11.148Z,89.44
2019-01-03T01:05:11.152Z,89.54
2019-01-03T01:06:11.099Z,89.48
2019-01-03T01:07:11.092Z,89.48
2019-01-03T01:08:11.890Z,89.16
2019-01-03T01:09:11.068Z,89.48
2019-01-03T01:10:11.060Z,89.62
2019-01-03T01:11:11.092Z,89.80
2019-01-03T01:12:11.040Z,89.16
2019-01-03T01:13:11.031Z,89.62
2019-01-03T01:14:11.019Z,89.73
2019-01-03T01:15:11.007Z,89.84
2019-01-03T01:16:10.999Z,89.73
2019-01-03T01:17:11.027Z,90.16
2019-01-03T01:18:21.002Z,89.52
2019-01-03T01:19:10.969Z,89.84
2019-01-03T01:20:10.955Z,89.98
2019-01-03T01:21:10.948Z,89.88
2019-01-03T01:22:10.939Z,89.77
2019-01-03T01:23:10.974Z,89.24
2019-01-03T01:24:10.917Z,89.77
2019-01-03T01:25:10.909Z,89.88
2019-01-03T01:26:10.895Z,89.52
2019-01-03T01:27:10.927Z,89.77
2019-01-03T01:28:10.883Z,89.45
2019-01-03T01:29:10.907Z,89.13
2019-01-03T01:30:10.880Z,89.73
2019-01-03T01:31:10.845Z,89.67
2019-01-03T01:32:10.837Z,89.67
2019-01-03T01:33:10.826Z,89.56
2019-01-03T01:34:10.816Z,89.92
2019-01-03T01:35:10.877Z,89.56
2019-01-03T01:36:10.798Z,89.70
2019-01-03T01:37:10.788Z,89.56
2019-01-03T01:38:10.780Z,89.34
2019-01-03T01:39:10.764Z,89.92
2019-01-03T01:40:10.755Z,89.67
2019-01-03T01:41:10.762Z,89.70
2019-01-03T01:42:10.736Z,89.17
2019-01-03T01:43:10.765Z,89.39
2019-01-03T01:44:10.717Z,89.60
2019-01-03T01:45:10.705Z,89.39
2019-01-03T01:46:10.697Z,89.60
2019-01-03T01:47:10.724Z,89.39
2019-01-03T01:48:10.673Z,89.81
2019-01-03T01:49:20.908Z,89.70
2019-01-03T01:50:10.654Z,88.89
2019-01-03T01:51:10.745Z,89.75
2019-01-03T01:52:10.634Z,89.75
2019-01-03T01:53:10.795Z,89.17
2019-01-03T01:54:10.620Z,89.42
2019-01-03T01:55:10.601Z,89.28
2019-01-03T01:56:10.594Z,89.85
2019-01-03T01:57:10.582Z,89.75
2019-01-03T01:58:10.578Z,89.75
2019-01-03T01:59:10.601Z,89.21
2019-01-03T02:00:10.552Z,89.32
2019-01-03T02:01:10.544Z,89.85
2019-01-03T02:02:10.532Z,90.06
2019-01-03T02:03:10.525Z,89.96
2019-01-03T02:04:10.512Z,89.96
2019-01-03T02:05:10.545Z,89.75
2019-01-03T02:06:10.492Z,89.64
2019-01-03T02:07:10.479Z,89.64
2019-01-03T02:08:10.470Z,89.64
2019-01-03T02:09:10.463Z,89.85
2019-01-03T02:10:10.460Z,89.53
2019-01-03T02:11:10.615Z,89.75
2019-01-03T02:12:10.431Z,89.75
2019-01-03T02:13:10.421Z,89.21
2019-01-03T02:14:10.944Z,89.42
2019-01-03T02:15:10.399Z,89.75
2019-01-03T02:16:10.389Z,89.68
2019-01-03T02:17:10.434Z,89.68
2019-01-03T02:18:10.370Z,89.68
2019-01-03T02:19:10.363Z,89.21
2019-01-03T02:20:23.114Z,89.68
2019-01-03T02:21:10.338Z,89.47
2019-01-03T02:22:10.328Z,89.25
2019-01-03T02:23:10.491Z,89.57
2019-01-03T02:24:10.309Z,89.68
2019-01-03T02:25:10.299Z,89.47
2019-01-03T02:26:10.297Z,89.68
2019-01-03T02:27:10.281Z,89.36
2019-01-03T02:28:10.270Z,89.78
2019-01-03T02:29:10.298Z,89.14
2019-01-03T02:30:10.247Z,89.83
2019-01-03T02:31:10.243Z,89.68
2019-01-03T02:32:10.233Z,89.40
2019-01-03T02:33:10.220Z,89.29
2019-01-03T02:34:10.207Z,89.57
2019-01-03T02:35:10.236Z,89.57
2019-01-03T02:36:10.186Z,89.40
2019-01-03T02:37:10.178Z,89.25
2019-01-03T02:38:10.168Z,89.83
2019-01-03T02:39:10.161Z,89.47
2019-01-03T02:40:10.189Z,89.57
2019-01-03T02:41:10.153Z,89.61
2019-01-03T02:42:10.129Z,89.61
2019-01-03T02:43:10.116Z,89.47
2019-01-03T02:44:10.134Z,89.47
2019-01-03T02:45:10.101Z,89.50
2019-01-03T02:46:10.089Z,89.29
2019-01-03T02:47:10.095Z,89.40
2019-01-03T02:48:10.066Z,89.61
2019-01-03T02:49:10.086Z,89.40
2019-01-03T02:50:10.049Z,89.50
2019-01-03T02:51:20.261Z,89.29
2019-01-03T02:52:10.026Z,90.04
2019-01-03T02:53:10.055Z,89.83
2019-01-03T02:54:10.012Z,89.50
2019-01-03T02:55:09.998Z,89.72
2019-01-03T02:56:09.990Z,89.40
2019-01-03T02:57:10.490Z,89.40
2019-01-03T02:58:09.967Z,89.61
2019-01-03T02:59:09.973Z,89.40
2019-01-03T03:00:09.948Z,89.50
2019-01-03T03:01:09.935Z,89.65
2019-01-03T03:02:09.931Z,89.54
2019-01-03T03:03:09.916Z,89.61
2019-01-03T03:04:09.916Z,89.50
2019-01-03T03:05:09.935Z,89.43
2019-01-03T03:06:09.885Z,89.65
2019-01-03T03:07:09.874Z,89.76
2019-01-03T03:08:09.864Z,89.54
2019-01-03T03:09:09.860Z,89.76
2019-01-03T03:10:09.845Z,89.76
2019-01-03T03:11:09.876Z,89.43
2019-01-03T03:12:09.828Z,89.43
2019-01-03T03:13:09.815Z,89.65
2019-01-03T03:14:09.804Z,89.76
2019-01-03T03:15:09.798Z,89.76
2019-01-03T03:16:09.784Z,89.65
2019-01-03T03:17:09.944Z,89.76
2019-01-03T03:18:09.763Z,89.54
2019-01-03T03:19:09.753Z,89.43
2019-01-03T03:20:10.481Z,89.76
2019-01-03T03:21:09.740Z,89.33
2019-01-03T03:22:22.603Z,89.76
2019-01-03T03:23:09.716Z,89.76
2019-01-03T03:24:09.704Z,89.01
2019-01-03T03:25:09.711Z,89.43
2019-01-03T03:26:09.682Z,89.43
2019-01-03T03:27:09.675Z,89.11
2019-01-03T03:28:09.712Z,89.22
2019-01-03T03:29:09.653Z,89.11
2019-01-03T03:30:09.644Z,89.26
2019-01-03T03:31:09.640Z,89.22
2019-01-03T03:32:09.624Z,89.76
2019-01-03T03:33:09.611Z,89.76
2019-01-03T03:34:09.649Z,89.65
2019-01-03T03:35:09.591Z,89.76
2019-01-03T03:36:09.589Z,89.43
2019-01-03T03:37:09.582Z,89.54
2019-01-03T03:38:09.572Z,89.43
2019-01-03T03:39:09.553Z,89.43
2019-01-03T03:40:09.613Z,89.65
2019-01-03T03:41:09.529Z,89.50
2019-01-03T03:42:09.520Z,89.50
2019-01-03T03:43:09.517Z,89.40
2019-01-03T03:44:09.508Z,89.83
2019-01-03T03:45:09.491Z,89.29
2019-01-03T03:46:09.521Z,88.96
2019-01-03T03:47:09.472Z,89.11
2019-01-03T03:48:09.460Z,89.11
2019-01-03T03:49:09.452Z,89.33
2019-01-03T03:50:09.448Z,89.07
2019-01-03T03:51:09.442Z,89.22
2019-01-03T03:52:09.465Z,89.01
2019-01-03T03:53:20.828Z,89.33
2019-01-03T03:54:09.402Z,89.43
2019-01-03T03:55:09.391Z,89.33
2019-01-03T03:56:09.404Z,88.79
2019-01-03T03:57:09.373Z,88.90
2019-01-03T03:58:09.440Z,89.33
2019-01-03T03:59:09.349Z,89.11
2019-01-03T04:00:09.348Z,89.22
2019-01-03T04:01:09.330Z,89.11
2019-01-03T04:02:09.321Z,89.43
2019-01-03T04:03:10.041Z,89.01
2019-01-03T04:04:09.335Z,89.01
2019-01-03T04:05:09.289Z,88.73
2019-01-03T04:06:09.282Z,89.01
2019-01-03T04:07:09.278Z,89.01
2019-01-03T04:08:09.260Z,89.11
2019-01-03T04:09:09.249Z,89.48
2019-01-03T04:10:09.255Z,89.15
2019-01-03T04:11:09.230Z,89.01
2019-01-03T04:12:09.218Z,88.36
2019-01-03T04:13:09.224Z,88.62
2019-01-03T04:14:09.196Z,88.58
2019-01-03T04:15:09.191Z,88.79
2019-01-03T04:16:09.352Z,88.68
2019-01-03T04:17:09.168Z,88.51
2019-01-03T04:18:09.157Z,88.58
2019-01-03T04:19:09.151Z,88.79
2019-01-03T04:20:09.149Z,88.29
2019-01-03T04:21:09.129Z,88.15
2019-01-03T04:22:09.160Z,88.36
2019-01-03T04:23:09.109Z,88.19
2019-01-03T04:24:19.736Z,88.40
2019-01-03T04:25:09.086Z,88.29
2019-01-03T04:26:09.077Z,88.26
2019-01-03T04:27:09.071Z,88.19
2019-01-03T04:28:09.831Z,88.40
2019-01-03T04:29:09.054Z,88.51
2019-01-03T04:30:09.054Z,88.51
2019-01-03T04:31:09.034Z,88.51
2019-01-03T04:32:09.020Z,88.51
2019-01-03T04:33:09.019Z,88.51
2019-01-03T04:34:09.176Z,88.29
2019-01-03T04:35:08.986Z,88.51
2019-01-03T04:36:08.979Z,89.04
2019-01-03T04:37:08.967Z,88.51
2019-01-03T04:38:08.961Z,88.76
2019-01-03T04:39:08.953Z,88.94
2019-01-03T04:40:08.975Z,89.15
2019-01-03T04:41:08.963Z,88.51
2019-01-03T04:42:08.915Z,88.29
2019-01-03T04:43:08.909Z,88.51
2019-01-03T04:44:08.902Z,88.40
2019-01-03T04:45:08.894Z,88.51
2019-01-03T04:46:09.109Z,88.40
2019-01-03T04:47:08.869Z,88.76
2019-01-03T04:48:08.859Z,88.29
2019-01-03T04:49:08.850Z,88.29
2019-01-03T04:50:08.864Z,88.08
2019-01-03T04:51:08.830Z,88.40
2019-01-03T04:52:08.882Z,88.51
2019-01-03T04:53:08.807Z,88.08
2019-01-03T04:54:08.798Z,88.51
2019-01-03T04:55:18.753Z,88.73
2019-01-03T04:56:08.780Z,88.29
2019-01-03T04:57:08.770Z,88.62
2019-01-03T04:58:08.801Z,88.73
2019-01-03T04:59:08.748Z,88.23
2019-01-03T05:00:08.735Z,88.34
2019-01-03T05:01:08.727Z,88.34
2019-01-03T05:02:08.715Z,88.29
2019-01-03T05:03:08.722Z,88.98
2019-01-03T05:04:08.739Z,88.62
2019-01-03T05:05:08.689Z,88.87
2019-01-03T05:06:08.702Z,88.51
2019-01-03T05:07:08.666Z,87.65
2019-01-03T05:08:08.656Z,87.76
2019-01-03T05:09:09.581Z,88.01
2019-01-03T05:10:08.790Z,88.01
2019-01-03T05:11:08.633Z,87.76
2019-01-03T05:12:08.649Z,88.01
2019-01-03T05:13:08.605Z,88.01
2019-01-03T05:14:08.598Z,88.87
2019-01-03T05:15:08.586Z,88.76
2019-01-03T05:16:08.602Z,88.23
2019-01-03T05:17:08.567Z,87.48
2019-01-03T05:18:08.588Z,87.98
2019-01-03T05:19:08.595Z,88.19
2019-01-03T05:20:08.541Z,88.29
2019-01-03T05:21:08.529Z,88.44
2019-01-03T05:22:08.633Z,87.80
2019-01-03T05:23:08.516Z,88.48
2019-01-03T05:24:08.526Z,88.01
2019-01-03T05:25:08.490Z,88.23
2019-01-03T05:26:18.830Z,88.48
2019-01-03T05:27:15.743Z,88.55
2019-01-03T05:28:08.455Z,88.65
2019-01-03T05:29:08.447Z,87.95
2019-01-03T05:30:08.443Z,88.05
2019-01-03T05:31:08.430Z,88.27
2019-01-03T05:32:08.416Z,88.01
2019-01-03T05:33:08.448Z,88.12
2019-01-03T05:34:08.398Z,88.81
2019-01-03T05:35:08.412Z,87.90
2019-01-03T05:36:08.378Z,88.01
2019-01-03T05:37:08.370Z,87.90
2019-01-03T05:38:08.380Z,88.01
2019-01-03T05:39:08.390Z,88.16
2019-01-03T05:40:08.343Z,88.01
2019-01-03T05:41:08.327Z,88.01
2019-01-03T05:42:08.325Z,88.16
2019-01-03T05:43:08.339Z,87.69
2019-01-03T05:44:08.301Z,87.73
2019-01-03T05:45:08.337Z,87.73
2019-01-03T05:46:08.279Z,88.37
2019-01-03T05:47:08.271Z,88.27
2019-01-03T05:48:08.261Z,87.90
2019-01-03T05:49:08.286Z,87.69
2019-01-03T05:50:08.240Z,87.95
2019-01-03T05:51:08.272Z,88.27
2019-01-03T05:52:08.221Z,88.23
2019-01-03T05:53:08.213Z,88.48
2019-01-03T05:54:08.200Z,88.01
2019-01-03T05:55:08.190Z,88.01
2019-01-03T05:56:08.204Z,87.90
2019-01-03T05:57:08.242Z,87.26
2019-01-03T05:58:18.719Z,87.19
2019-01-03T05:59:15.146Z,87.73
2019-01-03T06:00:08.142Z,87.48
2019-01-03T06:01:08.133Z,87.84
2019-01-03T06:02:08.121Z,86.98
2019-01-03T06:03:08.149Z,87.41
2019-01-03T06:04:08.132Z,87.08
2019-01-03T06:05:08.090Z,87.30
2019-01-03T06:06:08.084Z,87.51
2019-01-03T06:07:08.094Z,87.55
2019-01-03T06:08:08.063Z,87.77
2019-01-03T06:09:08.098Z,88.05
2019-01-03T06:10:08.043Z,87.08
2019-01-03T06:11:08.031Z,87.73
2019-01-03T06:12:08.022Z,87.51
2019-01-03T06:13:08.042Z,87.34
2019-01-03T06:14:08.006Z,87.95
2019-01-03T06:15:08.211Z,87.66
2019-01-03T06:16:07.982Z,88.63
2019-01-03T06:17:07.974Z,88.09
2019-01-03T06:18:07.972Z,88.05
2019-01-03T06:19:07.969Z,88.09
2019-01-03T06:20:07.947Z,87.34
2019-01-03T06:21:07.974Z,87.55
2019-01-03T06:22:07.925Z,88.20
2019-01-03T06:23:07.916Z,88.20
2019-01-03T06:24:07.907Z,88.63
2019-01-03T06:25:07.900Z,88.09
2019-01-03T06:26:07.886Z,88.09
2019-01-03T06:27:07.950Z,87.45
2019-01-03T06:28:08.154Z,87.77
2019-01-03T06:29:07.858Z,87.55
2019-01-03T06:30:18.404Z,87.55
2019-01-03T06:31:15.134Z,87.77
2019-01-03T06:32:15.245Z,87.77
2019-01-03T06:33:16.617Z,87.98
2019-01-03T06:34:14.798Z,87.38
2019-01-03T06:35:07.797Z,88.45
2019-01-03T06:36:07.785Z,88.02
2019-01-03T06:37:07.777Z,88.02
2019-01-03T06:38:07.788Z,87.81
2019-01-03T06:39:07.760Z,87.38
2019-01-03T06:40:07.774Z,87.81
2019-01-03T06:41:07.739Z,88.24
2019-01-03T06:42:07.735Z,88.78
2019-01-03T06:43:07.721Z,88.34
2019-01-03T06:44:07.747Z,87.92
2019-01-03T06:45:07.718Z,88.02
2019-01-03T06:46:07.689Z,88.34
2019-01-03T06:47:07.681Z,89.10
2019-01-03T06:48:07.685Z,87.92
2019-01-03T06:49:07.659Z,87.92
2019-01-03T06:50:07.755Z,88.13
2019-01-03T06:51:07.638Z,88.34
2019-01-03T06:52:07.627Z,87.70
2019-01-03T06:53:07.622Z,87.85
2019-01-03T06:54:07.625Z,87.74
2019-01-03T06:55:07.599Z,87.81
2019-01-03T06:56:07.761Z,87.81
2019-01-03T06:57:07.579Z,88.34
2019-01-03T06:58:07.569Z,87.92
2019-01-03T06:59:07.558Z,87.81
2019-01-03T07:00:07.575Z,87.95
2019-01-03T07:01:07.541Z,87.81
2019-01-03T07:02:07.568Z,87.41
2019-01-03T07:03:07.519Z,87.81
2019-01-03T07:04:07.510Z,87.27
2019-01-03T07:05:19.110Z,88.06
2019-01-03T07:06:14.473Z,87.74
2019-01-03T07:07:16.374Z,87.81
2019-01-03T07:08:14.456Z,88.06
2019-01-03T07:09:14.958Z,87.85
2019-01-03T07:10:07.452Z,87.74
2019-01-03T07:11:07.439Z,87.85
2019-01-03T07:12:07.434Z,87.74
2019-01-03T07:13:07.461Z,87.63
2019-01-03T07:14:07.419Z,87.38
2019-01-03T07:15:07.429Z,87.41
2019-01-03T07:16:07.392Z,87.20
2019-01-03T07:17:07.381Z,87.95
2019-01-03T07:18:07.412Z,87.20
2019-01-03T07:19:07.405Z,87.09
2019-01-03T07:20:07.355Z,86.99
2019-01-03T07:21:07.371Z,87.41
2019-01-03T07:22:07.335Z,87.41
2019-01-03T07:23:07.323Z,87.20
2019-01-03T07:24:07.318Z,87.27
2019-01-03T07:25:07.341Z,87.20
2019-01-03T07:26:07.331Z,87.09
2019-01-03T07:27:07.293Z,87.09
2019-01-03T07:28:07.277Z,87.52
2019-01-03T07:29:07.267Z,87.31
2019-01-03T07:30:07.253Z,87.74
2019-01-03T07:31:07.265Z,86.99
2019-01-03T07:32:07.266Z,87.20
2019-01-03T07:33:07.229Z,86.99
2019-01-03T07:34:07.215Z,87.41
2019-01-03T07:35:07.210Z,87.52
2019-01-03T07:36:07.196Z,86.99
2019-01-03T07:37:07.223Z,87.20
2019-01-03T07:38:07.207Z,87.41
2019-01-03T07:39:07.169Z,87.41
2019-01-03T07:40:17.086Z,87.20
2019-01-03T07:41:14.142Z,86.77
2019-01-03T07:42:07.133Z,86.99
2019-01-03T07:43:07.166Z,87.52
2019-01-03T07:44:07.117Z,87.20
2019-01-03T07:45:07.124Z,86.99
2019-01-03T07:46:07.116Z,87.20
2019-01-03T07:47:07.087Z,86.88
2019-01-03T07:48:07.078Z,86.99
2019-01-03T07:49:07.113Z,86.99
2019-01-03T07:50:07.057Z,87.20
2019-01-03T07:51:07.049Z,87.31
2019-01-03T07:52:07.035Z,87.52
2019-01-03T07:53:07.029Z,86.45
2019-01-03T07:54:07.018Z,86.88
2019-01-03T07:55:07.049Z,86.55
2019-01-03T07:56:07.073Z,86.55
2019-01-03T07:57:06.986Z,86.77
2019-01-03T07:58:06.977Z,86.45
2019-01-03T07:59:06.968Z,86.34
2019-01-03T08:00:06.960Z,86.45
2019-01-03T08:01:06.966Z,86.23
2019-01-03T08:02:06.957Z,86.99
2019-01-03T08:03:06.937Z,86.13
2019-01-03T08:04:06.920Z,85.91
2019-01-03T08:05:06.909Z,86.23
2019-01-03T08:06:06.901Z,85.80
2019-01-03T08:07:06.945Z,85.69
2019-01-03T08:08:06.911Z,85.91
2019-01-03T08:09:06.869Z,85.87
2019-01-03T08:10:06.860Z,85.80
2019-01-03T08:11:06.848Z,85.91
2019-01-03T08:12:17.476Z,86.02
2019-01-03T08:13:06.829Z,86.30
2019-01-03T08:14:06.830Z,86.13
2019-01-03T08:15:06.811Z,85.80
2019-01-03T08:16:06.799Z,86.02
2019-01-03T08:17:06.861Z,85.80
2019-01-03T08:18:06.819Z,86.34
2019-01-03T08:19:08.098Z,85.69
2019-01-03T08:20:06.792Z,85.91
2019-01-03T08:21:06.750Z,86.02
2019-01-03T08:22:06.739Z,85.80
2019-01-03T08:23:06.729Z,86.19
2019-01-03T08:24:06.739Z,86.30
2019-01-03T08:25:06.747Z,85.77
2019-01-03T08:26:06.701Z,85.98
2019-01-03T08:27:06.689Z,85.87
2019-01-03T08:28:06.680Z,85.69
2019-01-03T08:29:06.669Z,85.27
2019-01-03T08:30:06.831Z,85.80
2019-01-03T08:31:06.676Z,86.02
2019-01-03T08:32:06.641Z,85.55
2019-01-03T08:33:06.632Z,85.80
2019-01-03T08:34:06.626Z,85.05
2019-01-03T08:35:06.613Z,85.48
2019-01-03T08:36:06.806Z,85.16
2019-01-03T08:37:06.612Z,85.05
2019-01-03T08:38:06.582Z,85.38
2019-01-03T08:39:06.573Z,85.48
2019-01-03T08:40:06.560Z,85.48
2019-01-03T08:41:06.550Z,85.48
2019-01-03T08:42:06.564Z,85.38
2019-01-03T08:43:16.923Z,85.27
2019-01-03T08:44:13.516Z,85.27
2019-01-03T08:45:06.512Z,85.38
2019-01-03T08:46:06.500Z,85.48
2019-01-03T08:47:06.497Z,85.69
2019-01-03T08:48:06.529Z,84.83
2019-01-03T08:49:06.472Z,85.59
2019-01-03T08:50:06.462Z,85.27
2019-01-03T08:51:06.480Z,85.05
2019-01-03T08:52:06.442Z,85.16
2019-01-03T08:53:06.435Z,85.38
2019-01-03T08:54:06.469Z,85.48
2019-01-03T08:55:06.438Z,85.69
2019-01-03T08:56:06.401Z,85.16
2019-01-03T08:57:06.395Z,84.94
2019-01-03T08:58:06.385Z,85.27
2019-01-03T08:59:06.374Z,85.69
2019-01-03T09:00:06.539Z,85.59
2019-01-03T09:01:06.353Z,85.48
2019-01-03T09:02:06.344Z,85.69
2019-01-03T09:03:06.333Z,85.69
2019-01-03T09:04:06.332Z,85.48
2019-01-03T09:05:06.314Z,85.69
2019-01-03T09:06:06.411Z,85.48
2019-01-03T09:07:06.328Z,85.69
2019-01-03T09:08:06.283Z,85.16
2019-01-03T09:09:06.273Z,85.48
2019-01-03T09:10:06.268Z,85.48
2019-01-03T09:11:06.250Z,85.27
2019-01-03T09:12:06.285Z,85.59
2019-01-03T09:13:06.258Z,85.69
2019-01-03T09:14:06.223Z,84.73
2019-01-03T09:15:16.513Z,85.91
2019-01-03T09:16:13.489Z,85.16
2019-01-03T09:17:06.191Z,85.48
2019-01-03T09:18:09.578Z,85.44
2019-01-03T09:19:06.175Z,85.48
2019-01-03T09:20:06.167Z,84.52
2019-01-03T09:21:06.153Z,85.38
2019-01-03T09:22:06.154Z,84.73
2019-01-03T09:23:06.141Z,84.52
2019-01-03T09:24:06.366Z,84.73
2019-01-03T09:25:06.114Z,84.08
2019-01-03T09:26:06.104Z,85.55
2019-01-03T09:27:12.253Z,84.69
2019-01-03T09:28:07.082Z,84.83
2019-01-03T09:29:06.092Z,84.91
2019-01-03T09:30:06.101Z,84.94
2019-01-03T09:31:06.054Z,84.52
2019-01-03T09:32:06.069Z,84.83
2019-01-03T09:33:06.032Z,84.58
2019-01-03T09:34:06.021Z,84.69
2019-01-03T09:35:06.011Z,84.52
2019-01-03T09:36:06.039Z,84.37
2019-01-03T09:37:06.012Z,84.26
2019-01-03T09:38:05.979Z,84.26
2019-01-03T09:39:05.972Z,84.37
2019-01-03T09:40:05.963Z,84.37
2019-01-03T09:41:05.966Z,83.72
2019-01-03T09:42:05.980Z,84.62
2019-01-03T09:43:05.950Z,84.80
2019-01-03T09:44:05.922Z,84.47
2019-01-03T09:45:05.910Z,84.26
2019-01-03T09:46:05.904Z,84.26
2019-01-03T09:47:17.574Z,84.26
2019-01-03T09:48:05.879Z,84.05
2019-01-03T09:49:05.870Z,84.05
2019-01-03T09:50:05.861Z,84.26
2019-01-03T09:51:05.852Z,84.26
2019-01-03T09:52:05.839Z,84.05
2019-01-03T09:53:06.120Z,83.62
2019-01-03T09:54:05.818Z,83.58
2019-01-03T09:55:05.811Z,84.16
2019-01-03T09:56:05.799Z,83.36
2019-01-03T09:57:05.816Z,83.69
2019-01-03T09:58:05.779Z,83.58
2019-01-03T09:59:05.810Z,83.11
2019-01-03T10:00:05.759Z,82.93
2019-01-03T10:01:05.750Z,80.64
2019-01-03T10:02:05.779Z,78.04
2019-01-03T10:03:05.727Z,75.16
2019-01-03T10:04:05.719Z,71.97
2019-01-03T10:05:05.749Z,69.80
2019-01-03T10:06:05.696Z,69.60
2019-01-03T10:07:05.687Z,67.79
2019-01-03T10:08:05.713Z,67.73
2019-01-03T10:09:05.663Z,65.89
2019-01-03T10:10:05.653Z,64.94
2019-01-03T10:11:05.822Z,64.80
2019-01-03T10:12:05.633Z,64.45
2019-01-03T10:13:05.626Z,64.29
2019-01-03T10:14:05.643Z,63.23
2019-01-03T10:15:05.603Z,62.14
2019-01-03T10:16:05.621Z,60.87
2019-01-03T10:17:05.621Z,61.08
2019-01-03T10:18:15.534Z,60.58
2019-01-03T10:19:05.556Z,60.85
2019-01-03T10:20:05.549Z,62.30
2019-01-03T10:21:05.540Z,61.54
2019-01-03T10:22:05.525Z,61.40
2019-01-03T10:23:05.558Z,61.08
2019-01-03T10:24:05.504Z,60.84
2019-01-03T10:25:05.498Z,60.28
2019-01-03T10:26:05.494Z,60.07
2019-01-03T10:27:05.471Z,59.73
2019-01-03T10:28:05.463Z,58.91
2019-01-03T10:29:05.501Z,58.70
2019-01-03T10:30:05.441Z,58.78
2019-01-03T10:31:05.433Z,58.48
2019-01-03T10:32:05.418Z,58.70
2019-01-03T10:33:05.410Z,58.70
2019-01-03T10:34:05.401Z,58.33
2019-01-03T10:35:05.433Z,58.83
2019-01-03T10:36:05.375Z,59.06
2019-01-03T10:37:05.368Z,59.17
2019-01-03T10:38:05.358Z,59.39
2019-01-03T10:39:05.346Z,59.41
2019-01-03T10:40:05.335Z,59.99
2019-01-03T10:41:05.359Z,58.96
2019-01-03T10:42:05.320Z,59.63
2019-01-03T10:43:05.306Z,59.59
2019-01-03T10:44:05.293Z,59.52
2019-01-03T10:45:05.383Z,59.59
2019-01-03T10:46:05.277Z,59.17
2019-01-03T10:47:05.306Z,59.39
2019-01-03T10:48:05.248Z,59.39
2019-01-03T10:49:15.800Z,58.64
2019-01-03T10:50:05.227Z,57.74
2019-01-03T10:51:05.214Z,59.63
2019-01-03T10:52:05.204Z,59.12
2019-01-03T10:53:05.236Z,60.05
2019-01-03T10:54:05.185Z,59.30
2019-01-03T10:55:05.177Z,59.75
2019-01-03T10:56:05.169Z,60.08
2019-01-03T10:57:05.163Z,59.55
2019-01-03T10:58:05.141Z,59.59
2019-01-03T10:59:05.174Z,59.70
2019-01-03T11:00:05.126Z,59.25
2019-01-03T11:01:05.111Z,57.77
2019-01-03T11:02:05.099Z,58.94
2019-01-03T11:03:05.088Z,57.98
2019-01-03T11:04:05.080Z,58.59
2019-01-03T11:05:05.084Z,57.64
2019-01-03T11:06:05.061Z,57.95
2019-01-03T11:07:05.049Z,57.60
2019-01-03T11:08:05.034Z,59.94
2019-01-03T11:09:05.023Z,61.99
2019-01-03T11:10:05.018Z,63.24
2019-01-03T11:11:05.043Z,62.26
2019-01-03T11:12:04.991Z,60.95
2019-01-03T11:13:04.982Z,60.74
2019-01-03T11:14:04.970Z,60.13
2019-01-03T11:15:04.966Z,61.54
2019-01-03T11:16:04.947Z,61.27
2019-01-03T11:17:04.978Z,61.06
2019-01-03T11:18:04.925Z,59.73
2019-01-03T11:19:04.916Z,61.54
2019-01-03T11:20:15.849Z,62.68
2019-01-03T11:21:04.899Z,61.27
2019-01-03T11:22:04.882Z,60.26
2019-01-03T11:23:04.915Z,59.39
2019-01-03T11:24:04.859Z,58.78
2019-01-03T11:25:04.850Z,59.17
2019-01-03T11:26:04.844Z,58.86
2019-01-03T11:27:11.812Z,58.14
2019-01-03T11:28:04.818Z,59.06
2019-01-03T11:29:04.846Z,58.45
2019-01-03T11:30:04.797Z,59.25
2019-01-03T11:31:04.784Z,59.81
2019-01-03T11:32:12.059Z,60.58
2019-01-03T11:33:12.053Z,61.46
2019-01-03T11:34:04.751Z,62.20
2019-01-03T11:35:04.786Z,62.07
2019-01-03T11:36:04.728Z,62.12
2019-01-03T11:37:04.718Z,63.24
2019-01-03T11:38:04.708Z,64.58
2019-01-03T11:39:11.992Z,65.92
2019-01-03T11:40:04.687Z,67.93
2019-01-03T11:41:12.878Z,69.70
2019-01-03T11:42:04.667Z,70.73
2019-01-03T11:43:12.252Z,71.55
2019-01-03T11:44:12.243Z,72.05
2019-01-03T11:45:04.636Z,71.69
2019-01-03T11:46:04.625Z,73.33
2019-01-03T11:47:04.773Z,74.04
2019-01-03T11:48:11.600Z,74.93
2019-01-03T11:49:04.592Z,75.46
2019-01-03T11:50:04.583Z,76.32
2019-01-03T11:51:04.574Z,76.14
2019-01-03T11:52:04.573Z,76.03
2019-01-03T11:53:04.590Z,76.46
2019-01-03T11:54:04.542Z,76.82
2019-01-03T11:55:04.562Z,75.76
2019-01-03T11:56:04.518Z,73.41
2019-01-03T11:57:04.509Z,71.10
2019-01-03T11:58:04.498Z,69.74
2019-01-03T11:59:04.530Z,69.74
2019-01-03T12:00:04.499Z,70.16
2019-01-03T12:01:04.464Z,71.15
2019-01-03T12:02:04.453Z,72.36
2019-01-03T12:03:04.443Z,74.04
2019-01-03T12:04:05.079Z,74.74
2019-01-03T12:05:04.464Z,75.71
2019-01-03T12:06:04.432Z,76.17
2019-01-03T12:07:04.400Z,76.71
2019-01-03T12:08:04.393Z,77.50
2019-01-03T12:09:04.382Z,77.92
2019-01-03T12:10:04.374Z,78.03
2019-01-03T12:11:04.383Z,78.32
2019-01-03T12:12:04.374Z,77.89
2019-01-03T12:13:04.340Z,77.42
2019-01-03T12:14:04.331Z,78.28
2019-01-03T12:15:04.320Z,78.28
2019-01-03T12:16:04.311Z,78.17
2019-01-03T12:17:04.343Z,78.28
2019-01-03T12:18:04.312Z,78.03
2019-01-03T12:19:14.744Z,78.67
2019-01-03T12:20:04.268Z,77.92
2019-01-03T12:21:04.261Z,77.64
2019-01-03T12:22:04.254Z,78.42
2019-01-03T12:23:04.276Z,79.06
2019-01-03T12:24:04.255Z,78.99
2019-01-03T12:25:04.216Z,80.07
2019-01-03T12:26:04.210Z,80.32
2019-01-03T12:27:04.198Z,80.00
2019-01-03T12:28:04.793Z,80.00
2019-01-03T12:29:04.217Z,80.86
2019-01-03T12:30:04.164Z,80.57
2019-01-03T12:31:04.162Z,81.11
2019-01-03T12:32:04.156Z,81.65
2019-01-03T12:33:04.138Z,81.54
2019-01-03T12:34:04.147Z,82.07
2019-01-03T12:35:04.157Z,82.72
2019-01-03T12:36:04.106Z,81.76
2019-01-03T12:37:04.094Z,82.18
2019-01-03T12:38:04.084Z,82.65
2019-01-03T12:39:04.077Z,82.33
2019-01-03T12:40:04.091Z,83.08
2019-01-03T12:41:04.076Z,83.12
2019-01-03T12:42:04.044Z,82.90
2019-01-03T12:43:04.031Z,83.55
2019-01-03T12:44:04.023Z,83.87
2019-01-03T12:45:04.014Z,84.27
2019-01-03T12:46:04.017Z,84.19
2019-01-03T12:47:04.168Z,83.65
2019-01-03T12:48:03.985Z,83.65
2019-01-03T12:49:03.974Z,83.33
2019-01-03T12:50:14.229Z,83.59
2019-01-03T12:51:03.952Z,83.33
2019-01-03T12:52:03.941Z,84.12